ADDS TAF Board (Experimental) INFO Settings
IDs: Format: Expanded Condensed

KDFW - Dallas-Ft Worth Intl, TX, US

Issued at 2320 UTC 23 Jul 2016
Updated at 0252 UTC 24 Jul 2016
Time0153Z 24/03Z 24/04Z 24/05Z 24/06Z 24/07Z 24/08Z 24/09Z 24/10Z 24/11Z 24/12Z 24/13Z 24/14Z 24/15Z
Type OBS PRVL PRVL PRVL PRVL PRVL PRVL PRVL PRVL PRVL PRVL PRVL PRVL PRVL
VIS 10 >6 >6 >6 >6 >6 >6 >6 >6 >6 >6 >6 >6 >6
CIG -- -- -- -- -- -- -- -- -- -- -- -- -- --
Cover FEW FEW FEW FEW FEW FEW FEW FEW FEW FEW FEW FEW FEW FEW
FltCat VFR VFR VFR VFR VFR VFR VFR VFR VFR VFR VFR VFR VFR VFR
WX -- -- -- -- -- -- -- -- -- -- -- -- -- --
WDir 150 180 180 180 180 180 180 180 180 180 180 180 180 180
WSpd 8 8 8 8 8 8 8 8 8 8 8 8 8 8
WGst -- -- -- -- -- -- -- -- -- -- -- -- -- --
R13/31
XWnd -2 -6 -6 -6 -6 -6 -6 -6 -6 -6 -6 -6 -6 -6
HWnd 8 6 6 6 6 6 6 6 6 6 6 6 6 6
R17/35
XWnd 4 0 0 0 0 0 0 0 0 0 0 0 0 0
HWnd 7 8 8 8 8 8 8 8 8 8 8 8 8 8
R18/36
XWnd 4 0 0 0 0 0 0 0 0 0 0 0 0 0
HWnd 7 8 8 8 8 8 8 8 8 8 8 8 8 8

Raw TAF
KDFW 232320Z 2400/2506 18008KT P6SM FEW070

Raw METAR
KDFW 240153Z 15008KT 10SM FEW250 34/20 A2988 RMK AO2 SLP108 T03390200
KDFW 240053Z COR 16009KT 10SM FEW070 FEW250 35/19 A2986 RMK AO2 SLP099 CB TCU DSNT NE E T03500194
KDFW 232353Z 15010KT 10SM FEW070 FEW250 36/19 A2985 RMK AO2 SLP098 TCU DSNT E T03610194 10378 20356 56016

METAR Board
Radar Display
Forecast Discussion

TAF Board Legend

Potential Impact
Threat None Slight Moderate High
Visibility (sm) ≥5.1 5.1>X≥3 3>X≥1 <1
Ceiling (100 ft) ≥30.1 30.1>X≥10 10>X≥5 <5
Wind Speed (kt) <10 10≤X<20 20≤X<30 ≥30
Wind Gust (kt) <15 15≤X<25 25≤X<35 ≥35
Weather No Wx Reported VCTS,-TS,-FZRA,SN TS,FZRA +TS,+FZRA,+SN